EHEH/EIN METAR and TAF weather

Enter ICAO airport designator
Station Type Date Time Source
EHEH METAR 2018/04/21 20:55 UTC NOAA

EHEH 212055Z AUTO 01002KT 9999 OVC350 14/09 Q1018 BLU 03003KT CAVOK


Station Type Date Time Source
EHEH Decoded METAR 2018/04/21 20:55 UTC NOAA

Eindhoven, Netherlands (EHEH) 51-27N 005-25E 28M
Apr 21, 2018 - 04:55 PM EDT / 2018.04.21 2055 UTC
Wind: from the N (010 degrees) at 2 MPH (2 KT):0
Visibility: greater than 7 mile(s):0
Sky conditions: overcast
Temperature: 57 F (14 C)
Dew Point: 48 F (9 C)
Relative Humidity: 71%
Pressure (altimeter): 30.06 in. Hg (1018 hPa)
ob: EHEH 212055Z AUTO 01002KT 9999 OVC350 14/09 Q1018 BLU 03003KT CAVOK
cycle: 21

Station Type Date Time Source
EHEH TAF 2018/04/21 18:21 UTC NOAA

TAF TAF EHEH 211708Z 2118/2224 05007KT CAVOK PROB30
TEMPO 2200/2208 3500 HZ BR
BECMG 2205/2208 21008KT PROB40
TEMPO 2207/2218 21012G25KT 7000 SHRA TSRA FEW050CB SCT070 PROB30
TEMPO 2213/2217 24015G35KT 4000 TSRAGR SCT030CB BKN050
BECMG 2218/2221 25008KT


Example: see airport list